Time;durP1;ratioP1;P1;durP2;ratioP2;P2;SDS_P1;SDS_P2;PMS_P1;PMS_P2;Temp;Humidity;BMP_temperature;BMP_pressure;BME280_temperature;BME280_humidity;BME280_pressure;Samples;Min_cycle;Max_cycle;Signal;HPM_P1;HPM_P2
2023/05/29 00:00:09;;;;;;;11.60;5.40;;;13.10;99.90;;;;;;6185105;23;20695;-87
2023/05/29 00:02:58;;;;;;;12.73;5.60;;;13.10;99.30;;;;;;6184215;23;20452;-88
2023/05/29 00:05:45;;;;;;;10.45;5.10;;;13.10;99.90;;;;;;6162996;23;20344;-86
2023/05/29 00:08:37;;;;;;;10.10;5.63;;;13.00;99.90;;;;;;6185080;23;20021;-86
2023/05/29 00:11:25;;;;;;;11.82;5.25;;;12.80;99.90;;;;;;6184926;23;20032;-86
2023/05/29 00:14:13;;;;;;;12.98;5.20;;;12.60;99.90;;;;;;6163453;23;20036;-87
2023/05/29 00:17:02;;;;;;;10.95;4.78;;;12.50;99.90;;;;;;6164502;23;20028;-87
2023/05/29 00:19:55;;;;;;;9.93;5.10;;;12.30;99.90;;;;;;6185032;23;20053;-87
2023/05/29 00:22:45;;;;;;;9.35;4.90;;;12.20;99.90;;;;;;6182966;23;20021;-87
2023/05/29 00:25:32;;;;;;;10.75;5.07;;;12.10;99.90;;;;;;6184590;23;20087;-86
2023/05/29 00:28:22;;;;;;;12.38;5.55;;;12.40;99.90;;;;;;6185214;23;20035;-87
2023/05/29 00:31:11;;;;;;;6.82;4.68;;;12.40;99.90;;;;;;6185812;23;20120;-87
2023/05/29 00:33:59;;;;;;;10.30;4.60;;;12.50;99.90;;;;;;6163216;23;20039;-86
2023/05/29 00:36:47;;;;;;;13.15;4.95;;;12.70;99.90;;;;;;6183007;23;20063;-86
2023/05/29 00:39:34;;;;;;;8.88;4.40;;;12.70;99.90;;;;;;6184319;23;20029;-86
2023/05/29 00:45:35;;;;;;;11.05;4.95;;;12.70;95.30;;;;;;6184360;23;20025;-86
2023/05/29 00:48:23;;;;;;;9.43;4.60;;;12.60;94.30;;;;;;6163120;23;20429;-86
2023/05/29 00:51:15;;;;;;;11.70;5.03;;;12.40;97.30;;;;;;6163961;23;20025;-86
2023/05/29 00:54:06;;;;;;;10.57;4.90;;;12.20;99.90;;;;;;6185217;23;20083;-87
2023/05/29 00:56:54;;;;;;;9.55;4.90;;;12.00;99.90;;;;;;6183088;23;20032;-86
2023/05/29 00:59:46;;;;;;;9.55;4.63;;;11.90;99.90;;;;;;6184882;23;20094;-86
2023/05/29 01:02:36;;;;;;;9.30;5.13;;;11.80;99.90;;;;;;6184120;23;20053;-86
2023/05/29 01:05:25;;;;;;;11.65;4.88;;;11.70;99.90;;;;;;6182745;23;20060;-84
2023/05/29 01:08:13;;;;;;;10.10;4.85;;;11.70;99.90;;;;;;6185902;23;20317;-86
2023/05/29 01:11:16;;;;;;;8.48;4.82;;;11.60;99.90;;;;;;6183824;23;20029;-85
2023/05/29 01:14:07;;;;;;;;;;;11.60;99.90;;;;;;6161428;23;20028;-85
2023/05/29 01:17:04;;;;;;;12.93;5.28;;;11.50;99.90;;;;;;6183574;23;19978;-86
2023/05/29 01:20:16;;;;;;;12.05;5.72;;;11.50;99.90;;;;;;6183255;23;20029;-87
2023/05/29 01:23:34;;;;;;;11.20;5.10;;;11.40;99.90;;;;;;6183279;23;20079;-86
2023/05/29 01:26:42;;;;;;;11.10;5.57;;;11.20;99.90;;;;;;6182913;23;20025;-86
2023/05/29 01:29:34;;;;;;;9.82;5.05;;;11.10;99.90;;;;;;6183365;23;20028;-87
2023/05/29 01:32:25;;;;;;;8.57;5.47;;;10.90;99.90;;;;;;6184863;23;20104;-86
2023/05/29 01:35:12;;;;;;;11.73;5.65;;;10.80;99.90;;;;;;6185349;23;20027;-87
2023/05/29 01:38:00;;;;;;;12.18;6.13;;;10.70;99.90;;;;;;6183682;23;20035;-86
2023/05/29 01:40:47;;;;;;;15.50;5.40;;;10.70;99.90;;;;;;6185242;23;20043;-86
2023/05/29 01:43:35;;;;;;;10.82;5.30;;;10.60;99.90;;;;;;6183909;23;20017;-85
2023/05/29 01:46:25;;;;;;;11.02;5.28;;;10.60;99.90;;;;;;6184237;23;20096;-86
2023/05/29 01:49:13;;;;;;;9.23;5.40;;;10.50;99.90;;;;;;6182305;23;20048;-86
2023/05/29 01:52:00;;;;;;;13.25;6.10;;;10.60;99.90;;;;;;6183973;23;20163;-86
2023/05/29 01:54:52;;;;;;;13.13;5.97;;;10.60;99.90;;;;;;6186113;23;20029;-86
2023/05/29 01:57:41;;;;;;;12.70;5.70;;;10.60;99.90;;;;;;6185177;23;20025;-87
2023/05/29 02:00:30;;;;;;;13.48;5.68;;;10.50;99.90;;;;;;6185775;23;20052;-86
2023/05/29 02:03:22;;;;;;;10.85;6.20;;;10.30;99.90;;;;;;6181939;23;20039;-87
2023/05/29 02:06:11;;;;;;;11.60;6.43;;;10.20;99.90;;;;;;6184377;23;20025;-86
2023/05/29 02:09:00;;;;;;;12.88;6.60;;;10.20;1.00;;;;;;6184001;23;20029;-86
2023/05/29 02:11:48;;;;;;;15.02;7.05;;;10.10;1.00;;;;;;6185418;23;20021;-86
2023/05/29 02:14:40;;;;;;;11.50;6.00;;;10.00;1.00;;;;;;6163281;23;20028;-86
2023/05/29 02:17:28;;;;;;;18.45;6.47;;;9.90;1.00;;;;;;6181930;23;20603;-85
2023/05/29 02:20:17;;;;;;;12.45;6.68;;;9.90;1.00;;;;;;6163925;23;20029;-86
2023/05/29 02:23:09;;;;;;;16.27;6.13;;;9.90;1.00;;;;;;6162335;23;20386;-85
2023/05/29 02:25:56;;;;;;;15.02;6.15;;;9.90;1.00;;;;;;6184307;23;20051;-85
2023/05/29 02:28:46;;;;;;;13.77;6.63;;;9.80;1.00;;;;;;6185331;23;20332;-84
2023/05/29 02:31:33;;;;;;;11.00;5.93;;;9.90;1.00;;;;;;6183408;23;20031;-85
2023/05/29 02:34:23;;;;;;;11.60;6.95;;;9.90;1.00;;;;;;6182437;23;20433;-85
2023/05/29 02:37:10;;;;;;;11.25;6.07;;;9.90;1.00;;;;;;6182417;23;20029;-86
2023/05/29 02:39:57;;;;;;;10.45;6.13;;;10.00;1.00;;;;;;6183353;23;20036;-85
2023/05/29 02:42:47;;;;;;;11.15;5.57;;;10.10;1.00;;;;;;6184840;23;20025;-86
2023/05/29 02:45:35;;;;;;;11.90;6.13;;;9.90;1.00;;;;;;6183883;23;20413;-85
2023/05/29 02:48:22;;;;;;;11.98;6.38;;;9.80;1.00;;;;;;6162723;23;20029;-85
2023/05/29 02:51:09;;;;;;;14.80;6.70;;;9.80;1.00;;;;;;6184606;23;20100;-85
2023/05/29 02:53:56;;;;;;;14.10;6.70;;;9.70;1.00;;;;;;6184159;23;20025;-85
2023/05/29 02:56:46;;;;;;;11.73;7.07;;;9.60;1.00;;;;;;6183619;23;20041;-85
2023/05/29 02:59:35;;;;;;;14.32;7.07;;;9.50;14.00;;;;;;6182849;23;20412;-84
2023/05/29 03:02:22;;;;;;;14.00;6.85;;;9.50;66.70;;;;;;6184943;23;20029;-86
2023/05/29 03:05:10;;;;;;;14.45;6.30;;;9.40;99.90;;;;;;6186962;23;20028;-85
2023/05/29 03:07:57;;;;;;;15.25;6.30;;;9.40;99.90;;;;;;6165234;23;20029;-85
2023/05/29 03:10:44;;;;;;;13.30;6.38;;;9.40;99.90;;;;;;6186523;23;20021;-86
2023/05/29 03:13:54;;;;;;;13.18;6.50;;;9.40;99.90;;;;;;6188713;23;20033;-87
2023/05/29 03:16:43;;;;;;;11.85;6.88;;;9.40;99.90;;;;;;6188327;23;20372;-85
2023/05/29 03:19:30;;;;;;;11.20;6.10;;;9.30;99.90;;;;;;6189557;23;20036;-86
2023/05/29 03:22:17;;;;;;;11.15;6.93;;;9.40;99.90;;;;;;6165257;23;20028;-86
2023/05/29 03:25:05;;;;;;;11.82;6.82;;;9.30;99.90;;;;;;6163715;23;20021;-86
2023/05/29 03:27:52;;;;;;;13.13;6.75;;;9.20;99.90;;;;;;6186342;23;20040;-86
2023/05/29 03:30:40;;;;;;;15.05;6.90;;;9.20;99.90;;;;;;6186184;23;20025;-87
2023/05/29 03:33:29;;;;;;;14.48;6.90;;;9.20;99.90;;;;;;6184596;23;20569;-86
2023/05/29 03:36:19;;;;;;;13.10;7.72;;;9.30;99.90;;;;;;6186410;23;20028;-87
2023/05/29 03:39:06;;;;;;;13.93;7.97;;;9.50;99.90;;;;;;6183977;23;20031;-86
2023/05/29 03:41:56;;;;;;;11.27;6.90;;;9.70;99.90;;;;;;6184558;23;20020;-86
2023/05/29 03:44:43;;;;;;;13.38;7.57;;;9.80;99.90;;;;;;6183799;23;20087;-87
2023/05/29 03:47:30;;;;;;;12.38;7.25;;;9.70;99.90;;;;;;6186776;23;20036;-86
2023/05/29 03:50:18;;;;;;;11.20;6.85;;;9.70;99.90;;;;;;6186397;23;20036;-85
2023/05/29 03:53:05;;;;;;;13.75;7.20;;;9.50;99.90;;;;;;6186058;23;20025;-86
2023/05/29 03:55:52;;;;;;;13.30;6.85;;;9.40;99.90;;;;;;6185143;23;20028;-87
2023/05/29 03:58:40;;;;;;;13.20;7.35;;;9.40;99.90;;;;;;6186236;23;20104;-86
2023/05/29 04:02:01;;;;;;;14.10;7.75;;;9.30;99.90;;;;;;6185833;23;20039;-86
2023/05/29 04:05:02;;;;;;;14.40;7.72;;;9.40;99.90;;;;;;6185051;23;20028;-86
2023/05/29 04:07:51;;;;;;;12.40;7.07;;;9.60;99.90;;;;;;6184038;23;20037;-85
2023/05/29 04:10:53;;;;;;;13.57;6.40;;;9.60;99.90;;;;;;6183779;23;20025;-86
2023/05/29 04:14:04;;;;;;;11.02;7.00;;;9.60;99.90;;;;;;6167199;23;20385;-86
2023/05/29 04:16:52;;;;;;;14.80;8.48;;;9.60;99.90;;;;;;6182374;23;20025;-87
2023/05/29 04:19:39;;;;;;;11.73;7.57;;;9.60;99.90;;;;;;6184042;23;20100;-87
2023/05/29 04:22:27;;;;;;;14.25;7.30;;;9.60;99.90;;;;;;6163819;23;20448;-88
2023/05/29 04:25:15;;;;;;;18.92;8.13;;;9.70;99.90;;;;;;6183609;23;20025;-85
2023/05/29 04:28:03;;;;;;;13.20;7.85;;;9.70;99.90;;;;;;6183048;23;20036;-85
2023/05/29 04:30:55;;;;;;;14.98;7.53;;;9.90;99.90;;;;;;6183737;23;20087;-86
2023/05/29 04:33:45;;;;;;;15.25;7.82;;;10.00;99.90;;;;;;6161561;23;20045;-86
2023/05/29 04:36:38;;;;;;;13.23;6.93;;;10.10;99.90;;;;;;6182313;23;20040;-87
2023/05/29 04:39:25;;;;;;;12.80;6.93;;;10.10;99.90;;;;;;6184821;23;20432;-86
2023/05/29 04:42:14;;;;;;;10.95;7.03;;;10.10;99.90;;;;;;6163063;23;20433;-82
2023/05/29 04:45:06;;;;;;;11.60;6.97;;;10.10;99.90;;;;;;6161313;23;20025;-88
2023/05/29 04:47:54;;;;;;;15.20;7.22;;;10.10;99.90;;;;;;6162043;23;20302;-90
2023/05/29 04:50:44;;;;;;;15.98;7.18;;;10.30;99.90;;;;;;6144711;23;20392;-89
2023/05/29 04:53:32;;;;;;;11.27;6.85;;;10.40;99.90;;;;;;6183715;23;20036;-87
2023/05/29 04:56:20;;;;;;;15.98;8.13;;;10.50;99.90;;;;;;6183276;23;20040;-88
2023/05/29 04:59:07;;;;;;;14.60;7.18;;;10.70;99.90;;;;;;6163607;23;20025;-90
2023/05/29 05:01:55;;;;;;;11.73;7.18;;;10.80;99.90;;;;;;6163639;23;20036;-89
2023/05/29 05:04:43;;;;;;;15.52;7.63;;;10.90;99.90;;;;;;6184875;23;20103;-90
2023/05/29 05:07:31;;;;;;;18.23;8.65;;;11.00;99.90;;;;;;6184534;23;20104;-91
2023/05/29 05:10:21;;;;;;;14.65;7.95;;;11.10;47.90;;;;;;6185505;23;20043;-91
2023/05/29 05:13:08;;;;;;;13.48;7.70;;;11.10;1.00;;;;;;6202549;23;20064;-90
2023/05/29 05:15:56;;;;;;;13.57;7.60;;;11.20;1.00;;;;;;6201786;23;20025;-91
2023/05/29 05:18:43;;;;;;;16.77;7.60;;;11.30;1.00;;;;;;6186955;23;20039;-89
2023/05/29 05:21:32;;;;;;;16.50;7.22;;;11.40;1.00;;;;;;6165623;23;20040;-92
2023/05/29 05:24:24;;;;;;;13.75;7.70;;;11.50;1.00;;;;;;6186452;23;20032;-92
2023/05/29 05:27:14;;;;;;;15.43;7.25;;;11.70;1.00;;;;;;6185596;23;20021;-92
2023/05/29 05:30:06;;;;;;;13.27;6.60;;;11.80;1.00;;;;;;6188635;23;20028;-89
2023/05/29 05:32:53;;;;;;;12.98;7.65;;;12.10;1.00;;;;;;6185656;23;20115;-87
2023/05/29 05:35:41;;;;;;;17.05;7.68;;;12.20;1.00;;;;;;6185595;23;20116;-89
2023/05/29 05:38:28;;;;;;;16.00;7.68;;;12.40;1.00;;;;;;6186493;23;20040;-92
2023/05/29 05:41:15;;;;;;;11.90;6.82;;;12.40;1.00;;;;;;6165486;23;20032;-91
2023/05/29 05:44:03;;;;;;;17.75;7.90;;;12.50;1.00;;;;;;6184648;23;20025;-91
2023/05/29 05:46:50;;;;;;;14.25;7.20;;;12.60;1.00;;;;;;6164855;23;20089;-91
2023/05/29 05:49:39;;;;;;;12.70;7.30;;;12.70;1.00;;;;;;6145472;23;20118;-89
2023/05/29 05:52:30;;;;;;;10.70;6.47;;;12.90;1.00;;;;;;6163270;23;20091;-95
2023/05/29 05:55:20;;;;;;;13.02;7.57;;;13.10;99.90;;;;;;6165151;23;20409;-90
2023/05/29 05:58:07;;;;;;;14.52;7.75;;;13.30;99.90;;;;;;6163296;23;20025;-90
2023/05/29 06:00:57;;;;;;;13.65;6.75;;;13.50;99.90;;;;;;6162809;23;20025;-89
2023/05/29 06:03:46;;;;;;;11.63;7.13;;;13.60;99.90;;;;;;6184160;23;20028;-91
2023/05/29 06:06:35;;;;;;;13.95;7.03;;;13.80;99.90;;;;;;6164615;23;20021;-89
2023/05/29 06:09:27;;;;;;;13.27;6.65;;;13.90;99.90;;;;;;6165269;23;20343;-91
2023/05/29 06:12:15;;;;;;;12.40;7.22;;;14.00;99.90;;;;;;6165457;23;20100;-89
2023/05/29 06:15:04;;;;;;;12.23;6.95;;;14.20;99.90;;;;;;6166458;23;20029;-90
2023/05/29 06:17:55;;;;;;;13.63;6.22;;;14.20;99.90;;;;;;6165149;23;20053;-90
2023/05/29 06:20:44;;;;;;;12.07;6.30;;;14.40;99.90;;;;;;6166104;23;20031;-91
2023/05/29 06:23:33;;;;;;;11.70;5.85;;;14.50;99.90;;;;;;6165536;23;20099;-90
2023/05/29 06:26:21;;;;;;;8.55;5.18;;;14.70;99.90;;;;;;6163850;23;20428;-90
2023/05/29 06:29:08;;;;;;;12.73;5.65;;;14.90;99.90;;;;;;6164598;23;20040;-90
2023/05/29 06:31:56;;;;;;;9.50;4.78;;;15.00;99.90;;;;;;6191324;23;20032;-91
2023/05/29 06:34:43;;;;;;;9.80;5.72;;;15.20;99.90;;;;;;6190322;23;20032;-92
2023/05/29 06:37:31;;;;;;;15.65;6.38;;;15.40;99.90;;;;;;6188898;23;20032;-92
2023/05/29 06:40:18;;;;;;;10.13;5.78;;;15.60;99.90;;;;;;6166175;23;20025;-90
2023/05/29 06:43:18;;;;;;;9.55;5.13;;;15.90;99.90;;;;;;6191036;23;20029;-89
2023/05/29 06:46:09;;;;;;;10.77;5.53;;;16.20;99.90;;;;;;6191138;23;20032;-93
2023/05/29 06:48:59;;;;;;;10.00;5.25;;;16.40;99.90;;;;;;6197226;23;20009;-93
2023/05/29 06:51:48;;;;;;;9.98;5.45;;;16.70;99.90;;;;;;6165564;23;20021;-92
2023/05/29 06:54:35;;;;;;;13.70;5.45;;;16.90;99.90;;;;;;6187581;23;20040;-91
2023/05/29 06:57:24;;;;;;;12.88;5.30;;;17.20;99.90;;;;;;6186315;23;20040;-94
2023/05/29 07:00:12;;;;;;;13.80;4.78;;;17.70;99.90;;;;;;6185930;23;20421;-90
2023/05/29 07:03:02;;;;;;;9.88;4.88;;;18.30;93.80;;;;;;6188709;23;20120;-90
2023/05/29 07:05:49;;;;;;;9.35;4.93;;;18.60;71.00;;;;;;6191139;23;20025;-93
2023/05/29 07:08:37;;;;;;;8.32;4.60;;;18.80;48.00;;;;;;6187467;23;20024;-92
2023/05/29 07:11:26;;;;;;;10.65;5.50;;;19.30;47.40;;;;;;6191831;23;20025;-91
2023/05/29 07:14:14;;;;;;;11.75;5.03;;;19.60;28.70;;;;;;6195550;23;20061;-93
2023/05/29 07:17:03;;;;;;;9.32;5.15;;;20.00;23.40;;;;;;6199422;23;20029;-92
2023/05/29 07:19:50;;;;;;;10.15;5.15;;;20.30;11.20;;;;;;6166649;23;20088;-92
2023/05/29 07:22:38;;;;;;;7.78;4.38;;;20.80;3.80;;;;;;6197059;23;20024;-92
2023/05/29 07:25:28;;;;;;;7.78;4.30;;;21.00;1.00;;;;;;6202210;23;20036;-90
2023/05/29 07:28:26;;;;;;;8.35;4.70;;;21.50;1.00;;;;;;6191712;23;20023;-89
2023/05/29 07:31:20;;;;;;;7.78;4.88;;;21.80;1.00;;;;;;6187070;23;20020;-91
2023/05/29 07:35:11;;;;;;;7.80;4.32;;;21.60;1.00;;;;;;6059386;23;20748;-91
2023/05/29 07:38:58;;;;;;;12.27;5.20;;;22.00;1.00;;;;;;5988873;23;20045;-90
2023/05/29 07:42:44;;;;;;;11.30;5.43;;;22.30;1.00;;;;;;6065664;23;20038;-92
2023/05/29 07:49:17;;;;;;;9.48;5.13;;;22.90;1.00;;;;;;6082493;23;20029;-92
2023/05/29 07:52:46;;;;;;;12.23;5.53;;;23.10;1.00;;;;;;6083635;23;20104;-91
2023/05/29 07:56:21;;;;;;;10.27;5.45;;;23.40;1.00;;;;;;6067001;23;20034;-92
2023/05/29 07:59:19;;;;;;;8.98;4.72;;;23.80;1.00;;;;;;6058144;23;20031;-93
2023/05/29 08:03:01;;;;;;;;;;;;;;;;;;;;;
2023/05/29 08:06:29;;;;;;;7.43;4.63;;;24.10;1.00;;;;;;6184296;23;20029;-93
2023/05/29 08:09:39;;;;;;;7.20;4.45;;;24.30;1.00;;;;;;6169181;23;20087;-91
2023/05/29 08:12:40;;;;;;;9.13;4.78;;;23.90;1.00;;;;;;6197103;23;20310;-93
2023/05/29 08:15:49;;;;;;;7.32;4.70;;;24.20;1.00;;;;;;6170567;23;20034;-93
2023/05/29 08:19:56;;;;;;;11.10;4.60;;;24.40;1.00;;;;;;6189281;23;20472;-92
2023/05/29 08:23:10;;;;;;;6.20;4.50;;;24.30;1.00;;;;;;6193533;23;20021;-90
2023/05/29 08:25:57;;;;;;;9.57;5.20;;;24.40;1.00;;;;;;6193172;23;20037;-89
2023/05/29 08:28:45;;;;;;;6.93;4.75;;;24.70;1.00;;;;;;6182553;23;20024;-89
2023/05/29 08:31:33;;;;;;;10.20;5.00;;;25.10;1.00;;;;;;6184478;23;20020;-95
2023/05/29 08:34:21;;;;;;;10.57;5.30;;;25.90;1.00;;;;;;6185112;23;20040;-92
2023/05/29 08:37:12;;;;;;;8.70;4.80;;;25.70;1.00;;;;;;6188789;23;20321;-91
2023/05/29 08:39:59;;;;;;;7.20;4.90;;;25.90;1.00;;;;;;6186607;23;20047;-93
2023/05/29 08:43:22;;;;;;;9.60;4.68;;;26.00;1.00;;;;;;6187342;23;20029;-86
2023/05/29 08:46:09;;;;;;;8.90;5.25;;;26.20;1.00;;;;;;6132724;23;20036;-91
2023/05/29 08:48:59;;;;;;;8.27;4.93;;;26.70;1.00;;;;;;6163891;23;20025;-92
2023/05/29 08:52:35;;;;;;;11.65;5.05;;;27.10;1.00;;;;;;6165183;23;20044;-90
2023/05/29 08:55:24;;;;;;;7.95;4.70;;;27.20;1.00;;;;;;6038130;23;20033;-90
2023/05/29 08:58:13;;;;;;;7.68;4.97;;;27.10;1.00;;;;;;6037688;23;20159;-90
2023/05/29 09:01:02;;;;;;;11.45;4.80;;;27.50;1.00;;;;;;6160684;23;20025;-89
2023/05/29 09:03:49;;;;;;;8.35;4.60;;;27.30;1.00;;;;;;6162782;23;20021;-86
2023/05/29 09:06:37;;;;;;;6.93;4.43;;;27.10;1.00;;;;;;6185130;23;20040;-88
2023/05/29 09:09:27;;;;;;;8.63;4.88;;;27.30;1.00;;;;;;6183510;23;20413;-86
2023/05/29 09:12:16;;;;;;;8.10;4.63;;;27.30;1.00;;;;;;6184381;23;20041;-89
2023/05/29 09:15:27;;;;;;;8.10;4.75;;;27.20;1.00;;;;;;6182334;23;20039;-89
2023/05/29 09:18:17;;;;;;;7.57;4.38;;;27.70;1.00;;;;;;6182435;23;20030;-88
2023/05/29 09:21:11;;;;;;;9.60;4.57;;;27.80;1.00;;;;;;6184224;23;20029;-92
2023/05/29 09:24:04;;;;;;;6.95;4.70;;;27.20;1.00;;;;;;6182780;23;20029;-91
2023/05/29 09:26:55;;;;;;;8.48;4.78;;;27.00;1.00;;;;;;6185502;23;20200;-91
2023/05/29 09:29:44;;;;;;;8.55;4.50;;;27.30;1.00;;;;;;6169983;23;20028;-87
2023/05/29 09:32:33;;;;;;;11.07;4.65;;;27.50;1.00;;;;;;6185340;23;20083;-87
2023/05/29 09:35:21;;;;;;;10.00;4.70;;;28.00;1.00;;;;;;6184609;23;20404;-84
2023/05/29 09:38:11;;;;;;;8.23;4.80;;;28.10;1.00;;;;;;6184865;23;20029;-86
2023/05/29 09:41:25;;;;;;;10.75;4.32;;;27.80;1.00;;;;;;6184286;23;20036;-87
2023/05/29 09:44:14;;;;;;;6.13;4.10;;;28.20;1.00;;;;;;6163175;23;20404;-86
2023/05/29 09:47:01;;;;;;;10.40;4.65;;;28.60;1.00;;;;;;6186330;23;20048;-87
2023/05/29 09:49:49;;;;;;;7.60;4.30;;;28.00;1.00;;;;;;6184167;23;20115;-88
2023/05/29 09:52:37;;;;;;;6.25;3.70;;;27.80;1.00;;;;;;6184787;23;20037;-90
2023/05/29 09:55:26;;;;;;;6.90;4.30;;;27.30;1.00;;;;;;6163331;23;20028;-91
2023/05/29 09:58:15;;;;;;;8.63;4.35;;;27.20;1.00;;;;;;6163718;23;20039;-90
2023/05/29 10:01:02;;;;;;;9.02;4.60;;;27.40;1.00;;;;;;6184709;23;20122;-88
2023/05/29 10:03:50;;;;;;;7.25;4.47;;;27.70;1.00;;;;;;6184080;23;20025;-87
2023/05/29 10:06:42;;;;;;;11.07;4.85;;;28.20;1.00;;;;;;6163280;23;20028;-89
2023/05/29 10:09:32;;;;;;;10.07;4.57;;;27.90;1.00;;;;;;6184256;23;20036;-85
2023/05/29 10:12:23;;;;;;;10.15;4.70;;;28.20;1.00;;;;;;6183799;23;20103;-90
2023/05/29 10:15:15;;;;;;;6.72;4.00;;;28.20;1.00;;;;;;6162663;23;20035;-87
2023/05/29 10:18:04;;;;;;;10.45;4.72;;;28.50;1.00;;;;;;6163410;23;20029;-90
2023/05/29 10:20:58;;;;;;;7.43;4.32;;;28.80;1.00;;;;;;6162905;23;20033;-90
2023/05/29 10:23:48;;;;;;;7.75;4.20;;;29.40;1.00;;;;;;6183722;23;20039;-87
2023/05/29 10:26:38;;;;;;;9.50;4.50;;;29.70;1.00;;;;;;6184466;23;20044;-89
2023/05/29 10:29:45;;;;;;;6.95;4.30;;;29.70;1.00;;;;;;6184331;23;20029;-86
2023/05/29 10:32:43;;;;;;;7.03;3.75;;;29.60;1.00;;;;;;6163658;23;20065;-88
2023/05/29 10:36:05;;;;;;;14.23;4.70;;;29.60;1.00;;;;;;6185165;23;20408;-87
2023/05/29 10:38:55;;;;;;;8.43;4.10;;;28.80;1.00;;;;;;6188671;23;20033;-89
2023/05/29 10:41:45;;;;;;;29.00;4.95;;;28.40;1.00;;;;;;6186100;23;20112;-86
2023/05/29 10:44:32;;;;;;;6.72;4.32;;;28.40;1.00;;;;;;6161949;23;20478;-87
2023/05/29 10:47:23;;;;;;;11.10;4.05;;;29.00;1.00;;;;;;6185104;23;20025;-85
2023/05/29 10:50:10;;;;;;;7.00;4.32;;;29.10;1.00;;;;;;6183052;23;20025;-87
2023/05/29 10:53:01;;;;;;;6.80;4.28;;;28.90;1.00;;;;;;6185301;23;20409;-93
2023/05/29 10:55:48;;;;;;;8.18;4.20;;;28.30;1.00;;;;;;6162285;23;20314;-87
2023/05/29 10:58:35;;;;;;;7.72;4.35;;;28.70;1.00;;;;;;6165332;23;20036;-88
2023/05/29 11:01:27;;;;;;;11.05;4.53;;;28.50;1.00;;;;;;6163171;23;20029;-83
2023/05/29 11:04:17;;;;;;;7.47;4.30;;;28.70;1.00;;;;;;6162291;23;20177;-88
2023/05/29 11:07:08;;;;;;;8.88;4.25;;;27.70;1.00;;;;;;6183405;23;20021;-89
2023/05/29 11:10:12;;;;;;;7.35;3.83;;;28.30;1.00;;;;;;6164331;23;20086;-88
2023/05/29 11:13:05;;;;;;;7.35;3.95;;;28.70;1.00;;;;;;6185152;23;20021;-90
2023/05/29 11:16:19;;;;;;;7.22;3.92;;;28.80;1.00;;;;;;6183776;23;20032;-88
2023/05/29 11:19:12;;;;;;;7.57;4.05;;;28.60;1.00;;;;;;6183373;23;20033;-86
2023/05/29 11:22:21;;;;;;;6.75;3.83;;;29.10;1.00;;;;;;6185600;23;20455;-88
2023/05/29 11:25:14;;;;;;;7.70;4.03;;;29.60;1.00;;;;;;6184483;23;20035;-88
2023/05/29 11:28:04;;;;;;;5.85;3.50;;;30.00;1.00;;;;;;6185486;23;20025;-88
2023/05/29 11:30:54;;;;;;;7.60;3.92;;;29.60;1.00;;;;;;6185130;23;20036;-90
2023/05/29 11:33:49;;;;;;;6.55;4.40;;;30.10;1.00;;;;;;6188298;23;20113;-87
2023/05/29 11:36:39;;;;;;;5.88;3.75;;;30.10;1.00;;;;;;6188028;23;20401;-90
2023/05/29 11:39:28;;;;;;;7.17;3.90;;;30.20;1.00;;;;;;6185844;23;20040;-84
2023/05/29 11:42:16;;;;;;;6.28;3.65;;;31.00;1.00;;;;;;6184775;23;20100;-89
2023/05/29 11:45:14;;;;;;;7.50;3.60;;;31.70;1.00;;;;;;6184650;23;20032;-87
2023/05/29 11:48:03;;;;;;;6.65;3.80;;;31.60;1.00;;;;;;6186385;23;20036;-91
2023/05/29 11:50:50;;;;;;;7.30;3.55;;;30.60;1.00;;;;;;6184742;23;20285;-88
2023/05/29 11:53:42;;;;;;;8.10;3.65;;;30.30;1.00;;;;;;6184608;23;20021;-90
2023/05/29 11:56:30;;;;;;;7.88;3.45;;;29.80;1.00;;;;;;6184386;23;20444;-89
2023/05/29 11:59:17;;;;;;;7.20;3.75;;;30.50;1.00;;;;;;6186305;23;20115;-87
2023/05/29 12:02:04;;;;;;;4.10;2.78;;;30.70;1.00;;;;;;6184422;23;20033;-88
2023/05/29 12:05:07;;;;;;;8.30;3.38;;;31.50;1.00;;;;;;6184779;23;20033;-88
2023/05/29 12:07:57;;;;;;;8.68;3.50;;;32.20;1.00;;;;;;6184823;23;20025;-87
2023/05/29 12:10:49;;;;;;;6.45;3.15;;;32.50;1.00;;;;;;6184402;23;20507;-88
2023/05/29 12:13:36;;;;;;;12.70;3.42;;;31.90;1.00;;;;;;6184664;23;20308;-89
2023/05/29 12:16:26;;;;;;;6.97;3.63;;;31.40;1.00;;;;;;6184563;23;20040;-88
2023/05/29 12:19:14;;;;;;;6.85;3.20;;;31.60;1.00;;;;;;6184176;23;20310;-89
2023/05/29 12:22:03;;;;;;;6.88;3.40;;;31.50;1.00;;;;;;6185688;23;20028;-85
2023/05/29 12:24:51;;;;;;;5.95;3.30;;;31.10;1.00;;;;;;6185725;23;20419;-86
2023/05/29 12:27:43;;;;;;;6.65;3.65;;;31.10;1.00;;;;;;6184506;23;20108;-89
2023/05/29 12:30:38;;;;;;;5.68;3.47;;;30.70;1.00;;;;;;6185252;23;20021;-86
2023/05/29 12:33:31;;;;;;;5.95;3.08;;;31.30;1.00;;;;;;6184137;23;20021;-86
2023/05/29 12:36:18;;;;;;;5.78;3.33;;;32.20;1.00;;;;;;6185398;23;20371;-85
2023/05/29 12:39:08;;;;;;;11.55;3.42;;;32.50;1.00;;;;;;6183798;23;20048;-87
2023/05/29 12:41:58;;;;;;;4.55;3.10;;;31.40;1.00;;;;;;6185532;23;20025;-85
2023/05/29 12:44:47;;;;;;;6.03;2.90;;;31.20;1.00;;;;;;6182770;23;20036;-84
2023/05/29 12:47:34;;;;;;;6.03;3.17;;;31.50;1.00;;;;;;6184016;23;20032;-88
2023/05/29 12:50:28;;;;;;;6.63;3.75;;;31.10;1.00;;;;;;6184991;23;20317;-86
2023/05/29 12:53:16;;;;;;;6.00;3.35;;;30.70;1.00;;;;;;6184517;23;20097;-87
2023/05/29 12:56:05;;;;;;;4.32;2.97;;;30.60;1.00;;;;;;6163873;23;20040;-90
2023/05/29 12:58:54;;;;;;;3.78;3.10;;;29.90;1.00;;;;;;6184434;23;20044;-86
2023/05/29 13:01:44;;;;;;;6.72;3.25;;;30.10;1.00;;;;;;6184844;23;20312;-88
2023/05/29 13:04:34;;;;;;;7.00;3.33;;;31.10;1.00;;;;;;6185528;23;20425;-87
2023/05/29 13:07:23;;;;;;;8.18;3.08;;;31.30;1.00;;;;;;6162474;23;20063;-87
2023/05/29 13:10:10;;;;;;;4.63;3.20;;;30.50;1.00;;;;;;6192410;23;20116;-89
2023/05/29 13:12:59;;;;;;;4.90;3.03;;;30.50;1.00;;;;;;6165115;23;20036;-86
2023/05/29 13:15:46;;;;;;;8.48;3.58;;;30.30;1.00;;;;;;6184467;23;20048;-90
2023/05/29 13:18:34;;;;;;;5.63;3.30;;;31.10;1.00;;;;;;6186193;23;20039;-87
2023/05/29 13:21:21;;;;;;;5.75;3.08;;;30.60;1.00;;;;;;6188845;23;20384;-85
2023/05/29 13:24:08;;;;;;;5.35;3.05;;;29.90;1.00;;;;;;6188350;23;20036;-86
2023/05/29 13:26:55;;;;;;;4.82;2.92;;;29.80;1.00;;;;;;6186778;23;20021;-86
2023/05/29 13:29:43;;;;;;;4.57;3.50;;;29.90;1.00;;;;;;6165161;23;20029;-91
2023/05/29 13:32:38;;;;;;;4.95;3.00;;;30.50;1.00;;;;;;6166372;23;20294;-90
2023/05/29 13:35:26;;;;;;;7.60;3.35;;;30.70;1.00;;;;;;6188701;23;20051;-88
2023/05/29 13:38:13;;;;;;;4.72;2.72;;;31.10;1.00;;;;;;6186912;23;20033;-85
2023/05/29 13:41:00;;;;;;;6.57;3.65;;;31.10;1.00;;;;;;6185863;23;20052;-89
2023/05/29 13:43:50;;;;;;;11.18;3.58;;;31.10;1.00;;;;;;6183124;23;20431;-89
2023/05/29 13:46:37;;;;;;;7.82;3.42;;;30.90;1.00;;;;;;6183433;23;20032;-88
2023/05/29 13:49:26;;;;;;;8.05;6.07;;;30.10;1.00;;;;;;6187333;23;20120;-89
2023/05/29 13:52:16;;;;;;;4.13;3.03;;;29.20;1.00;;;;;;6168292;23;20021;-87
2023/05/29 13:55:09;;;;;;;6.53;3.60;;;29.80;1.00;;;;;;6191225;23;20032;-88
2023/05/29 13:57:58;;;;;;;5.70;3.40;;;29.80;1.00;;;;;;6192314;23;20470;-88
2023/05/29 14:00:48;;;;;;;5.82;3.03;;;30.00;1.00;;;;;;6188909;23;20393;-88
2023/05/29 14:03:35;;;;;;;5.22;3.45;;;30.70;1.00;;;;;;6184538;23;20021;-86
2023/05/29 14:06:23;;;;;;;4.22;3.17;;;31.40;1.00;;;;;;6183749;23;20025;-90
2023/05/29 14:09:10;;;;;;;5.90;3.25;;;31.40;1.00;;;;;;6163030;23;20025;-90
2023/05/29 14:11:59;;;;;;;7.40;3.30;;;31.00;1.00;;;;;;6184721;23;20036;-86
2023/05/29 14:14:46;;;;;;;4.45;3.47;;;31.00;1.00;;;;;;6185533;23;20032;-87
2023/05/29 14:17:33;;;;;;;5.70;3.78;;;30.10;1.00;;;;;;6164353;23;20032;-85
2023/05/29 14:20:21;;;;;;;11.95;5.10;;;30.00;1.00;;;;;;6186632;23;20130;-89
2023/05/29 14:23:13;;;;;;;6.32;3.10;;;29.90;1.00;;;;;;6183247;23;20025;-87
2023/05/29 14:26:02;;;;;;;6.88;3.50;;;29.70;1.00;;;;;;6165310;23;20021;-86
2023/05/29 14:28:51;;;;;;;6.78;3.00;;;29.70;1.00;;;;;;6184282;23;20025;-87
2023/05/29 14:31:52;;;;;;;9.23;3.58;;;30.20;1.00;;;;;;6183340;23;20036;-85
2023/05/29 14:34:40;;;;;;;8.48;3.42;;;30.20;1.00;;;;;;6162606;23;20036;-85
2023/05/29 14:37:27;;;;;;;7.50;3.30;;;30.90;1.00;;;;;;6185339;23;20332;-87
2023/05/29 14:40:15;;;;;;;5.47;3.28;;;30.90;1.00;;;;;;6163863;23;20043;-86
2023/05/29 14:43:03;;;;;;;11.63;7.38;;;30.40;1.00;;;;;;6186070;23;20143;-88
2023/05/29 14:45:50;;;;;;;5.53;4.38;;;29.80;1.00;;;;;;6182916;23;20325;-86
2023/05/29 14:48:37;;;;;;;6.70;3.30;;;29.90;1.00;;;;;;6183558;23;20028;-88
2023/05/29 14:51:25;;;;;;;8.52;4.00;;;29.90;1.00;;;;;;6186188;23;20020;-85
2023/05/29 14:54:12;;;;;;;9.73;3.92;;;30.60;1.00;;;;;;6184834;23;20207;-86
2023/05/29 14:57:00;;;;;;;3.75;3.20;;;30.60;1.00;;;;;;6185803;23;20029;-85
2023/05/29 14:59:47;;;;;;;5.35;3.75;;;31.10;1.00;;;;;;6190325;23;20029;-88
2023/05/29 15:02:34;;;;;;;5.68;3.53;;;30.20;1.00;;;;;;6184273;23;20029;-86
2023/05/29 15:05:21;;;;;;;9.13;3.72;;;30.00;1.00;;;;;;6184994;23;20028;-83